• Join FlightAware (Why Join?)
  • Login
  • US Flag 
07:59AM EDT


 

Airport Tracker/Info


-or-


 

Live Flight TrackerFlight Track Log ✈ FDX1155 ✈ 14-Nov-2013 ✈ KAFW - KIAH

Flight Track Log - Related Links

Times and Time Zones

All times are in EST time to prevent confusion due to time zone crossing. See the FDX1155 flight status page for this flight to view local times or setup timezone preferences in your user account.

Time Position Orientation Groundspeed Altitude Reporting Facility
EST Latitude Longitude Course Direction KTS MPH feet Rate Location/Type
04:45AM 32.9888 -97.3181 177° South 160 184 300  Level FlightAware ADS-B (KAFW)
04:46AM 32.9692 -97.3143 171° South 141 162 1,300 2,160 Climbing FlightAware ADS-B (KAFW)
04:46AM 32.9551 -97.3135 177° South 164 189 1,800 1,500 Climbing FlightAware ADS-B (KAFW)
04:46AM 32.9486 -97.3135 180° South 174 200 2,000 1,200 Climbing FlightAware ADS-B (KAFW)
04:46AM 32.9375 -97.3135 180° South 188 216 2,200 1,200 Climbing FlightAware ADS-B (KAFW)
04:47AM 32.9304 -97.3134 179° South 200 230 2,400 1,860 Climbing FlightAware ADS-B (KAFW)
04:47AM 32.9107 -97.3127 178° South 217 250 3,100 2,340 Climbing FlightAware ADS-B (KAFW)
04:47AM 32.8903 -97.3117 178° South 223 257 4,000 2,760 Climbing FlightAware ADS-B (KAFW)
04:47AM 32.8805 -97.3116 180° South 227 261 4,400 2,700 Climbing FlightAware ADS-B (KAFW)
04:48AM 32.8687 -97.3115 180° South 230 265 4,900 2,700 Climbing FlightAware ADS-B (KAFW)
04:48AM 32.8470 -97.3108 178° South 233 268 5,900 2,640 Climbing FlightAware ADS-B (KAFW)
04:48AM 32.8378 -97.3107 179° South 240 276 6,200 1,920 Climbing FlightAware ADS-B (KAFW)
04:48AM 32.8143 -97.3107 180° South 258 297 6,800 2,220 Climbing FlightAware ADS-B (KAFW)
04:49AM 32.7987 -97.3106 180° South 261 300 7,400 3,000 Climbing FlightAware ADS-B (KAFW)
04:49AM 32.7892 -97.3106 180° South 264 304 7,800 2,220 Climbing FlightAware ADS-B (KAFW)
04:49AM 32.7640 -97.3093 178° South 274 315 8,500 2,160 Climbing FlightAware ADS-B (KAFW)
04:49AM 32.7499 -97.3028 159° South 283 326 9,000 2,580 Climbing FlightAware ADS-B (KAFW)
04:50AM 32.7264 -97.2856 148° Southeast 285 328 9,900 1,860 Climbing FlightAware ADS-B (KAFW)
04:50AM 32.6843 -97.2587 152° Southeast 318 366 10,800 1,320 Climbing FlightAware ADS-B (KAFW)
04:51AM 32.6372 -97.2257 149° Southeast 352 405 11,500 1,920 Climbing FlightAware ADS-B (KAFW)
04:52AM 32.5750 -97.1790 148° Southeast 363 418 13,300 2,220 Climbing FlightAware
04:52AM 32.5103 -97.1307 148° Southeast 378 435 14,800 2,280 Climbing FlightAware ADS-B (KAFW)
04:53AM 32.4640 -97.0970 148° Southeast 376 433 16,200 1,920 Climbing FlightAware
04:53AM 32.4080 -97.0560 148° Southeast 396 456 17,000 1,260 Climbing FlightAware
04:54AM 32.3430 -97.0090 149° Southeast 414 476 17,900 1,740 Climbing FlightAware
04:55AM 32.2690 -96.9550 148° Southeast 418 481 19,500 1,920 Climbing FlightAware
04:55AM 32.2080 -96.9120 149° Southeast 424 488 20,500 1,500 Climbing FlightAware
04:56AM 32.1500 -96.8700 148° Southeast 434 499 21,300 1,320 Climbing FlightAware
04:57AM 32.0880 -96.8250 148° Southeast 442 509 22,100 1,260 Climbing FlightAware
04:57AM 32.0350 -96.7870 149° Southeast 451 519 22,700 1,260 Climbing FlightAware
04:58AM 31.9550 -96.7300 149° Southeast 462 532 23,700 1,380 Climbing FlightAware
04:58AM 31.8890 -96.6820 148° Southeast 464 534 24,600 1,260 Climbing FlightAware
04:59AM 31.8398 -96.6464 148° Southeast 465 535 25,000 300 Climbing FlightAware ADS-B
05:00AM 31.7603 -96.5893 149° Southeast 468 539 25,000  Level FlightAware ADS-B
05:00AM 31.7014 -96.5469 149° Southeast 469 540 25,000  Level FlightAware ADS-B
05:01AM 31.6270 -96.4942 149° Southeast 467 537 25,000  Level FlightAware ADS-B
05:01AM 31.5707 -96.4547 149° Southeast 467 537 25,000  Level FlightAware ADS-B
05:02AM 31.5111 -96.4126 149° Southeast 466 536 25,000  Level FlightAware ADS-B
05:02AM 31.4510 -96.3694 148° Southeast 467 537 25,000  Level FlightAware ADS-B
05:03AM 31.3952 -96.3301 149° Southeast 465 535 25,000  Level FlightAware ADS-B
05:03AM 31.3389 -96.2909 149° Southeast 466 536 25,000  Level FlightAware ADS-B
05:04AM 31.2835 -96.2505 148° Southeast 461 531 25,000 -840 Level FlightAware ADS-B
05:04AM 31.2275 -96.2121 150° Southeast 455 524 24,200 -2,280 Descending FlightAware ADS-B
05:05AM 31.1711 -96.1711 148° Southeast 456 525 22,700 -2,760 Descending FlightAware ADS-B
05:05AM 31.1167 -96.1333 149° Southeast 449 517 21,400 -2,280 Descending FlightAware ADS-B
05:06AM 31.0632 -96.0962 149° Southeast 434 499 20,400 -2,040 Descending FlightAware ADS-B
05:06AM 31.0123 -96.0604 149° Southeast 423 487 19,400 -2,340 Descending FlightAware ADS-B
05:07AM 30.9620 -96.0241 148° Southeast 417 480 18,100 -2,400 Descending FlightAware ADS-B
05:07AM 30.9120 -95.9896 149° Southeast 406 467 17,000 -2,040 Descending FlightAware ADS-B
05:08AM 30.8632 -95.9553 149° Southeast 394 453 16,000 -1,920 Descending FlightAware ADS-B
05:09AM 30.8135 -95.9209 149° Southeast 385 443 15,000 -1,980 Descending FlightAware ADS-B
05:09AM 30.7678 -95.8881 148° Southeast 374 430 14,000 -1,920 Descending FlightAware ADS-B
05:10AM 30.7236 -95.8575 149° Southeast 363 418 13,100 -1,920 Descending FlightAware ADS-B
05:10AM 30.6801 -95.8279 150° Southeast 357 411 12,100 -2,040 Descending FlightAware ADS-B
05:11AM 30.6375 -95.7990 150° Southeast 350 403 11,100 -1,500 Descending FlightAware ADS-B
05:11AM 30.5954 -95.7697 149° Southeast 341 392 10,600 -900 Descending FlightAware ADS-B
05:12AM 30.5541 -95.7410 149° Southeast 308 354 10,200 -780 Descending FlightAware ADS-B
05:12AM 30.5366 -95.7296 151° Southeast 301 346 10,000 -1,080 Descending FlightAware ADS-B
05:12AM 30.5127 -95.7137 150° Southeast 299 344 9,600 -1,080 Descending FlightAware ADS-B
05:12AM 30.4947 -95.7011 149° Southeast 287 330 9,400 -1,500 Descending FlightAware ADS-B
05:13AM 30.4751 -95.6877 149° Southeast 291 335 8,800 -1,440 Descending FlightAware ADS-B
05:13AM 30.4519 -95.6721 150° Southeast 281 323 8,500 -1,140 Descending FlightAware ADS-B
05:13AM 30.4340 -95.6599 150° Southeast 281 323 8,100 -1,620 Descending FlightAware ADS-B
05:13AM 30.4227 -95.6522 150° Southeast 284 327 7,800 -360 Descending FlightAware ADS-B
05:14AM 30.4133 -95.6472 147° Southeast 282 325 8,000 -1,200 Climbing Houston Center
05:14AM 30.4052 -95.6406 150° Southeast 279 321 7,500 -2,400 Descending FlightAware ADS-B
05:14AM 30.3847 -95.6262 149° Southeast 278 320 7,000 -1,080 Descending FlightAware ADS-B
05:17AM 30.1629 -95.4629 139° Southeast  Level FlightAware Approximate
05:18AM 30.0725 -95.4002 147° Southeast  Level FlightAware Approximate
05:19AM 29.9833 -95.3333 147° Southeast  Level FlightAware Approximate
05:19AM 30.1005 -95.4310 147° Southeast 193 222 2,100  Level FlightAware ADS-B
05:19AM 30.0968 -95.4283 148° Southeast 180 207 2,100 -600 Level FlightAware ADS-B
05:19AM 30.0861 -95.4219 153° Southeast 166 191 1,900 -780 Descending FlightAware ADS-B
05:20AM 30.0761 -95.4158 152° Southeast 159 183 1,700 -840 Descending FlightAware ADS-B
05:20AM 30.0661 -95.4093 151° Southeast 157 181 1,500 -840 Descending FlightAware ADS-B
05:20AM 30.0566 -95.4036 153° Southeast 147 169 1,300 -840 Descending FlightAware ADS-B
05:20AM 30.0523 -95.4011 153° Southeast 141 162 1,200 -840 Descending FlightAware ADS-B
05:20AM 30.0436 -95.3956 151° Southeast 135 155 1,000 -720 Descending FlightAware ADS-B
05:21AM 30.0383 -95.3925 153° Southeast 135 155 900 -720 Descending FlightAware ADS-B
05:21AM 30.0298 -95.3870 151° Southeast 135 155 700 -780 Descending FlightAware ADS-B
05:21AM 30.0211 -95.3820 154° Southeast 133 153 500 -660 Descending FlightAware ADS-B
05:21AM 30.0142 -95.3776 151° Southeast 131 151 400 -660 Descending FlightAware ADS-B
05:22AM 30.0061 -95.3727 152° Southeast 131 151 200 -720 Descending FlightAware ADS-B
05:22AM 29.9997 -95.3687 152° Southeast 132 152 100  Descending FlightAware ADS-B
05:22AM 29.9896 -95.3626 152° Southeast 139 160  Descending FlightAware ADS-B
05:22AM 29.9804 -95.3572 153° Southeast 125 144  Level FlightAware ADS-B
05:14AM 30.2390 -95.5200 330° Northwest 250 288 4,900  Climbing FlightAware
05:14AM 30.2302 -95.5138 149° Southeast 250 288 4,700 -1,020 Descending FlightAware ADS-B
05:14AM 30.2148 -95.5033 149° Southeast 243 280 4,500 -840 Descending FlightAware ADS-B
05:15AM 30.2012 -95.4944 151° Southeast 238 274 4,300 -840 Descending FlightAware ADS-B
05:15AM 30.1877 -95.4857 151° Southeast 232 267 4,100 -900 Descending FlightAware ADS-B
05:15AM 30.1629 -95.4698 151° Southeast 222 255 3,700 -900 Descending FlightAware ADS-B
05:16AM 30.1492 -95.4611 151° Southeast 221 254 3,500 -780 Descending FlightAware ADS-B
05:16AM 30.1336 -95.4508 150° Southeast 217 250 3,300 -1,020 Descending FlightAware ADS-B
05:16AM 30.1175 -95.4412 153° Southeast 215 247 2,900 -1,260 Descending FlightAware ADS-B
05:16AM 30.1007 -95.4309 152° Southeast 202 232 2,500 -1,200 Descending FlightAware ADS-B
05:17AM 30.0922 -95.4254 151° Southeast 196 226 2,300 -1,080 Descending FlightAware ADS-B
05:17AM 30.0869 -95.4225 155° Southeast 193 222 2,200 -840 Descending FlightAware ADS-B
05:17AM 30.0756 -95.4153 151° Southeast 184 212 2,000 -1,020 Descending FlightAware ADS-B
05:17AM 30.0642 -95.4083 152° Southeast 166 191 1,700 -1,020 Descending FlightAware ADS-B
05:18AM 30.0540 -95.4020 152° Southeast 147 169 1,500 -780 Descending FlightAware ADS-B
05:18AM 30.0449 -95.3965 152° Southeast 131 151 1,300 -780 Descending FlightAware ADS-B
05:18AM 30.0366 -95.3916 153° Southeast 130 150 1,100 -720 Descending FlightAware ADS-B
05:18AM 30.0300 -95.3872 150° Southeast 132 152 1,000 -720 Descending FlightAware ADS-B
05:18AM 30.0230 -95.3830 153° Southeast 131 151 800 -720 Descending FlightAware ADS-B
05:19AM 30.0164 -95.3791 153° Southeast 132 152 700 -600 Descending FlightAware ADS-B
05:19AM 30.0114 -95.3761 153° Southeast 129 148 600 -720 Descending FlightAware ADS-B
05:19AM 30.0073 -95.3735 151° Southeast 129 148 500 -780 Descending FlightAware ADS-B